createdAt,value
2023-05-21T00:02:01.988Z,12.76
2023-05-21T00:07:20.930Z,12.76
2023-05-21T00:18:00.364Z,12.76
2023-05-21T00:23:19.275Z,12.76
2023-05-21T00:28:38.663Z,12.76
2023-05-21T00:33:57.639Z,12.75
2023-05-21T00:39:16.615Z,12.75
2023-05-21T00:44:35.458Z,12.75
2023-05-21T00:49:54.900Z,12.74
2023-05-21T00:55:13.859Z,12.75
2023-05-21T01:00:43.616Z,12.74
2023-05-21T01:05:53.110Z,12.74
2023-05-21T01:11:12.250Z,12.74
2023-05-21T01:16:31.677Z,12.74
2023-05-21T01:21:50.896Z,12.74
2023-05-21T01:27:10.233Z,12.74
2023-05-21T01:32:29.356Z,12.74
2023-05-21T01:37:48.439Z,12.73
2023-05-21T01:43:07.231Z,12.73
2023-05-21T01:48:26.390Z,12.74
2023-05-21T01:53:45.573Z,12.73
2023-05-21T01:59:04.577Z,12.73
2023-05-21T02:04:23.354Z,12.73
2023-05-21T02:09:42.919Z,12.72
2023-05-21T02:15:02.537Z,12.72
2023-05-21T02:20:21.802Z,12.72
2023-05-21T02:25:41.037Z,12.72
2023-05-21T02:31:00.617Z,12.72
2023-05-21T02:36:19.609Z,12.72
2023-05-21T02:41:39.244Z,12.72
2023-05-21T02:46:58.709Z,12.72
2023-05-21T02:52:18.142Z,12.72
2023-05-21T02:57:37.176Z,12.72
2023-05-21T03:02:56.123Z,12.72
2023-05-21T03:08:15.157Z,12.71
2023-05-21T03:13:34.620Z,12.71
2023-05-21T03:18:53.430Z,12.71
2023-05-21T03:24:12.707Z,12.72
2023-05-21T03:29:31.878Z,12.71
2023-05-21T03:34:51.403Z,12.71
2023-05-21T03:40:11.660Z,12.71
2023-05-21T03:45:30.523Z,12.7
2023-05-21T03:50:50.109Z,12.7
2023-05-21T03:56:08.939Z,12.71
2023-05-21T04:06:48.065Z,12.73
2023-05-21T04:12:07.222Z,12.74
2023-05-21T04:17:26.904Z,12.75
2023-05-21T04:22:46.534Z,12.77
2023-05-21T04:28:05.072Z,12.78
2023-05-21T04:33:24.440Z,12.8
2023-05-21T04:38:43.828Z,12.83
2023-05-21T04:44:02.715Z,12.87
2023-05-21T04:49:31.742Z,12.92
2023-05-21T04:54:40.529Z,12.97
2023-05-21T04:59:59.974Z,13.04
2023-05-21T05:05:18.714Z,13.13
2023-05-21T05:10:37.711Z,13.22
2023-05-21T05:16:23.057Z,13.31
2023-05-21T05:21:42.049Z,13.43
2023-05-21T05:27:00.909Z,13.51
2023-05-21T05:32:20.265Z,13.59
2023-05-21T05:37:39.745Z,13.64
2023-05-21T05:42:58.116Z,13.69
2023-05-21T05:48:17.094Z,13.73
2023-05-21T05:53:36.217Z,13.78
2023-05-21T05:58:55.661Z,13.83
2023-05-21T06:04:14.737Z,13.88
2023-05-21T06:09:33.916Z,13.96
2023-05-21T06:14:53.091Z,14.06
2023-05-21T06:20:12.265Z,14.23
2023-05-21T06:25:31.650Z,14.19
2023-05-21T06:30:50.998Z,14.23
2023-05-21T06:36:09.869Z,14.37
2023-05-21T06:42:44.022Z,14.36
2023-05-21T06:46:49.231Z,14.36
2023-05-21T06:52:08.041Z,14.36
2023-05-21T07:02:44.947Z,14.38
2023-05-21T07:08:04.622Z,14.42
2023-05-21T07:13:23.997Z,14.39
2023-05-21T07:18:42.806Z,14.39
2023-05-21T07:24:02.072Z,14.39
2023-05-21T07:29:21.201Z,14.42
2023-05-21T07:34:40.034Z,14.38
2023-05-21T07:39:58.851Z,14.44
2023-05-21T07:45:17.795Z,14.39
2023-05-21T07:50:36.887Z,14.39
2023-05-21T07:55:55.974Z,14.4
2023-05-21T08:01:15.448Z,14.39
2023-05-21T08:06:34.696Z,14.4
2023-05-21T08:11:53.570Z,14.43
2023-05-21T08:17:12.362Z,14.4
2023-05-21T08:22:31.071Z,14.39
2023-05-21T08:27:52.404Z,14.4
2023-05-21T08:33:08.995Z,14.39
2023-05-21T08:38:30.199Z,14.4
2023-05-21T08:43:49.956Z,14.4
2023-05-21T08:49:07.141Z,14.39
2023-05-21T08:54:26.722Z,14.41
2023-05-21T08:59:45.557Z,14.4
2023-05-21T09:05:04.979Z,14.4
2023-05-21T09:10:24.212Z,14.39
2023-05-21T09:15:42.934Z,14.4
2023-05-21T09:21:01.886Z,14.41
2023-05-21T09:26:20.832Z,14.4
2023-05-21T09:31:40.368Z,14.4
2023-05-21T09:36:59.465Z,14.47
2023-05-21T09:42:18.357Z,14.39
2023-05-21T09:47:37.596Z,14.4
2023-05-21T09:52:56.731Z,14.4
2023-05-21T09:58:15.855Z,14.4
2023-05-21T10:03:34.892Z,14.4
2023-05-21T10:08:54.091Z,14.41
2023-05-21T10:14:12.914Z,14.39
2023-05-21T10:19:32.516Z,14.4
2023-05-21T10:25:01.232Z,14.4
2023-05-21T10:30:10.315Z,14.4
2023-05-21T10:35:29.819Z,14.48
2023-05-21T10:40:49.537Z,14.41
2023-05-21T10:46:08.953Z,14.4
2023-05-21T10:51:28.130Z,14.41
2023-05-21T10:56:47.257Z,14.46
2023-05-21T11:02:06.549Z,14.39
2023-05-21T11:07:25.448Z,14.4
2023-05-21T11:12:44.540Z,14.46
2023-05-21T11:18:03.508Z,14.4
2023-05-21T11:23:22.229Z,14.42
2023-05-21T11:28:41.420Z,14.4
2023-05-21T11:34:00.485Z,14.4
2023-05-21T11:39:19.938Z,14.4
2023-05-21T11:44:39.544Z,14.4
2023-05-21T11:49:59.111Z,14.4
2023-05-21T11:55:18.448Z,14.4
2023-05-21T12:00:37.834Z,14.4
2023-05-21T12:05:56.725Z,14.4
2023-05-21T12:11:15.387Z,14.41
2023-05-21T12:16:34.753Z,14.4
2023-05-21T12:21:53.417Z,14.42
2023-05-21T12:27:12.060Z,14.42
2023-05-21T12:32:31.493Z,14.42
2023-05-21T12:37:50.872Z,14.4
2023-05-21T12:43:09.664Z,14.4
2023-05-21T12:48:29.254Z,14.41
2023-05-21T12:53:48.323Z,14.4
2023-05-21T12:59:07.918Z,14.4
2023-05-21T13:09:46.398Z,14.39
2023-05-21T13:15:14.993Z,14.46
2023-05-21T13:20:24.845Z,14.39
2023-05-21T13:25:44.263Z,14.4
2023-05-21T13:31:03.057Z,14.4
2023-05-21T13:36:21.851Z,14.41
2023-05-21T13:41:41.126Z,14.4
2023-05-21T13:47:00.363Z,14.4
2023-05-21T13:52:19.770Z,14.39
2023-05-21T13:57:39.126Z,14.39
2023-05-21T14:02:58.652Z,14.41
2023-05-21T14:08:17.373Z,14.4
2023-05-21T14:13:36.498Z,14.4
2023-05-21T14:18:55.954Z,14.4
2023-05-21T14:24:15.206Z,14.4
2023-05-21T14:29:34.688Z,14.4
2023-05-21T14:34:54.785Z,14.4
2023-05-21T14:40:13.748Z,14.4
2023-05-21T14:45:33.330Z,14.4
2023-05-21T14:50:52.191Z,14.4
2023-05-21T14:56:11.073Z,14.4
2023-05-21T15:01:30.287Z,14.4
2023-05-21T15:06:49.719Z,14.39
2023-05-21T15:12:09.216Z,14.4
2023-05-21T15:17:28.461Z,14.4
2023-05-21T15:22:47.287Z,14.4
2023-05-21T15:28:06.382Z,14.39
2023-05-21T15:33:26.087Z,14.41
2023-05-21T15:38:45.454Z,14.41
2023-05-21T15:44:04.691Z,14.39
2023-05-21T15:49:23.628Z,14.39
2023-05-21T15:54:43.189Z,14.39
2023-05-21T16:00:02.072Z,14.4
2023-05-21T16:05:21.524Z,14.4
2023-05-21T16:10:40.575Z,14.41
2023-05-21T16:16:00.042Z,14.39
2023-05-21T16:21:19.361Z,14.4
2023-05-21T16:26:38.882Z,14.39
2023-05-21T16:31:57.744Z,14.39
2023-05-21T16:37:16.776Z,14.39
2023-05-21T16:42:36.053Z,14.4
2023-05-21T16:47:54.849Z,14.39
2023-05-21T16:53:13.480Z,14.39
2023-05-21T16:58:32.340Z,14.4
2023-05-21T17:03:51.360Z,14.39
2023-05-21T17:09:10.515Z,14.4
2023-05-21T17:19:49.241Z,14.39
2023-05-21T17:25:08.001Z,14.38
2023-05-21T17:30:26.723Z,14.38
2023-05-21T17:35:45.828Z,14.38
2023-05-21T17:41:05.048Z,14.38
2023-05-21T17:46:24.302Z,14.36
2023-05-21T17:51:43.929Z,13.87
2023-05-21T17:57:02.678Z,13.52
2023-05-21T18:02:22.140Z,13.44
2023-05-21T18:07:51.109Z,13.38
2023-05-21T18:13:01.526Z,13.32
2023-05-21T18:18:21.693Z,13.24
2023-05-21T18:24:54.843Z,13.16
2023-05-21T18:29:00.852Z,13.07
2023-05-21T18:34:19.999Z,13
2023-05-21T18:39:39.480Z,12.92
2023-05-21T18:44:58.992Z,12.87
2023-05-21T18:50:18.250Z,12.83
2023-05-21T18:55:36.999Z,12.82
2023-05-21T19:06:15.829Z,12.82
2023-05-21T19:11:34.773Z,12.82
2023-05-21T19:16:53.579Z,12.82
2023-05-21T19:22:13.217Z,12.82
2023-05-21T19:27:32.071Z,12.82
2023-05-21T19:32:49.993Z,12.82
2023-05-21T19:38:08.738Z,12.82
2023-05-21T19:43:28.191Z,12.82
2023-05-21T19:48:47.352Z,12.83
2023-05-21T19:54:06.280Z,12.83
2023-05-21T20:04:45.090Z,12.82
2023-05-21T20:10:03.843Z,12.82
2023-05-21T20:16:38.006Z,12.82
2023-05-21T20:20:44.164Z,12.81
2023-05-21T20:26:02.739Z,12.82
2023-05-21T20:31:22.192Z,12.82
2023-05-21T20:36:41.400Z,12.82
2023-05-21T20:41:59.873Z,12.81
2023-05-21T20:47:18.871Z,12.82
2023-05-21T20:52:37.667Z,12.81
2023-05-21T20:57:57.335Z,12.81
2023-05-21T21:03:16.218Z,12.81
2023-05-21T21:08:35.087Z,12.81
2023-05-21T21:13:54.662Z,12.81
2023-05-21T21:19:14.006Z,12.8
2023-05-21T21:24:33.547Z,12.8
2023-05-21T21:29:52.707Z,12.8
2023-05-21T21:35:12.288Z,12.79
2023-05-21T21:40:31.814Z,12.79
2023-05-21T21:45:50.901Z,12.8
2023-05-21T21:51:10.086Z,12.79
2023-05-21T21:58:08.671Z,12.78
2023-05-21T22:01:50.047Z,12.78
2023-05-21T22:07:08.991Z,12.78
2023-05-21T22:12:27.998Z,12.78
2023-05-21T22:17:46.730Z,12.78
2023-05-21T22:23:05.472Z,12.78
2023-05-21T22:28:24.267Z,12.78
2023-05-21T22:33:43.869Z,12.78
2023-05-21T22:42:16.648Z,12.76
2023-05-21T22:44:20.226Z,12.77
2023-05-21T22:51:18.844Z,12.76
2023-05-21T23:00:18.377Z,12.76
2023-05-21T23:00:46.320Z,12.73
2023-05-21T23:06:05.556Z,12.76
2023-05-21T23:11:24.438Z,12.76
2023-05-21T23:16:44.158Z,12.76
2023-05-21T23:22:03.798Z,12.76
2023-05-21T23:27:23.089Z,12.75
2023-05-21T23:32:42.200Z,12.75
2023-05-21T23:38:01.163Z,12.75
2023-05-21T23:43:20.628Z,12.74
2023-05-21T23:53:58.198Z,12.74
2023-05-21T23:59:18.433Z,12.74
